x

West Gulf - 207 Nm East Of Brownsville, Tx (42002) Wave Buoy

4:50pm - Sun 19th Apr 2015 All times are CDT. -5 hours from GMT.

  • Sig Wave height 2.6ft
  • Swell Direction
  • Peak Period 7s
  • Average Period 5s
  • Wind
    7mph, 9mph gusts
  • Sea Temp 79°f
  • Air Temp 80°f
  • Sea Pressure 1008.2mb
  • West Gulf - 207 Nm East Of Brownsville, Tx
  • West Gulf - 207 Nm East Of Brownsville, Tx

More Historic Weather Station data

Upgrade to MSW Pro to gain access to the past 30 days of data for over 8000 Wavebouys and Weather Stations around the globe.

Join Pro

Comparision Forecast

View Surf forecast
   
Sun 04/19 4:50pm 2.5ft 7s 5s 7 9 mph 1008.2mb 79f 80f
3:50pm 2.5ft 7s 5s 7 9 mph 1008.6mb 79f 79f
2:50pm 3ft 7s 5s 7 9 mph 1009.2mb 78f 79f
1:50pm 3ft 7s 5s 7
mph
1009.8mb 78f 79f
12:50pm 3ft 7s 5s 9
mph
1010.2mb 78f 78f
11:50am 3ft 7s 5s 4 7 mph 1010.8mb 78f 78f
10:50am 3ft 6s 5s 2
mph
1011.1mb 78f 79f
9:50am 3ft 7s 5s 4 7 mph 1010.5mb 77f 78f
8:50am 3ft 7s 5s 9 11 mph 1010mb 77f 78f
7:50am 3.5ft 7s 6s 9 11 mph 1009.9mb 77f 77f
6:50am 3ft 7s 5s 11 13 mph 1009.2mb 77f 77f
5:50am 3ft 7s 5s 4 7 mph 1008.3mb 77f 77f
4:50am 3.5ft 7s 5s 4 7 mph 1007.7mb 77f 77f
3:50am 3.5ft 7s 5s 7 9 mph 1007.8mb 77f 77f
2:50am 3.5ft 7s 5s 9 11 mph 1009mb 77f 77f
1:50am 3ft 6s 5s 9
mph
1009.5mb 77f 77f
12:50am 2.5ft 6s 5s 13
mph
1009mb 77f 77f
Sat 04/18 11:50pm 2.5ft 6s 4s 11 13 mph 1010.2mb 77f 77f
10:50pm 2.5ft 6s 4s 9 11 mph 1010.5mb 77f 77f
9:50pm 2.5ft 6s 4s 7 11 mph 1010.7mb 77f 77f
8:50pm 2.5ft 6s 4s 20 27 mph 1007mb 77f 76f
7:50pm 2.5ft 6s 5s 16 20 mph 1006.6mb 77f 76f
6:50pm 2.5ft 6s 4s 13 16 mph 1008.7mb 77f 75f
5:50pm 2.5ft 6s 5s 18 20 mph 1009.3mb 77f 74f
4:50pm 2.5ft 6s 4s 13 18 mph 1010.5mb 77f 74f
3:50pm 2.5ft 6s 4s 13 16 mph 1010.4mb 77f 74f
2:50pm 3ft 6s 4s 18 20 mph 1011.9mb 77f 73f
1:50pm 3ft 6s 5s 18 20 mph 1013.1mb 77f 76f
12:50pm 3.5ft 6s 4s 11 13 mph 1010.9mb 77f 78f
11:50am 3ft 6s 5s 16 18 mph 1010.8mb 77f 78f
10:50am 3ft 7s 5s 13 18 mph 1011.2mb 77f 78f
9:50am 3.5ft 7s 5s 2 4 mph 1011.4mb 77f 78f
8:50am 3.5ft 7s 5s 2
mph
1011.7mb 77f 78f
7:50am 3.5ft 7s 5s 7 9 mph 1011.1mb 77f 78f
6:50am 3.5ft 7s 5s 13
mph
1009.9mb 77f 78f
5:50am 3.5ft 7s 5s 9 11 mph 1009.9mb 77f 78f
4:50am 3.5ft 7s 5s 11 13 mph 1009.7mb 77f 77f
3:50am 4ft 7s 5s 9 11 mph 1010.1mb 77f 78f
2:50am 3.5ft 6s 5s 11 13 mph 1010.7mb 77f 78f
1:50am 3.5ft 6s 5s 11 13 mph 1011mb 77f 78f
12:50am 3.5ft 6s 4s 11 13 mph 1011.4mb 77f 78f
Fri 04/17 11:50pm 3.5ft 5s 4s 13 18 mph 1011.1mb 77f 78f
10:50pm 3.5ft 6s 4s 18 20 mph 1011.1mb 77f 78f
9:50pm 3.5ft 6s 5s 16 18 mph 1010.7mb 77f 78f
8:50pm 3.5ft 5s 4s 16 18 mph 1010.3mb 77f 78f
7:50pm 3.5ft 6s 4s 13 16 mph 1009.5mb 77f 78f
6:50pm 3.5ft 6s 4s 13 18 mph 1009.4mb 77f 79f
5:50pm 3.5ft 6s 5s 13 16 mph 1009.5mb 77f 79f
4:50pm 3.5ft 6s 5s 13 16 mph 1010mb 77f 79f
3:50pm 3.5ft 6s 5s 16 18 mph 1010.5mb 77f 78f
2:50pm 3.5ft 7s 4s 16 18 mph 1011.4mb 77f 78f
1:50pm 3.5ft 7s 4s 16 18 mph 1012.3mb 77f 78f
12:50pm 3.5ft 7s 4s 13 16 mph 1013.3mb 77f 78f
11:50am 3.5ft 7s 5s 16 18 mph 1013.6mb 77f 78f
10:50am 3.5ft 7s 5s 16 18 mph 1013.6mb 76f 78f
9:50am 3.5ft 7s 5s 11 13 mph 1013.8mb 76f 78f
8:50am 3.5ft 7s 5s 7 9 mph 1013.5mb 76f 78f
7:50am 4ft 7s 5s 9 11 mph 1012.7mb 76f 77f
6:50am 3.5ft 7s 5s 9 11 mph 1012.5mb 76f 77f
5:50am 4.5ft 6s 6s 11 13 mph 1012.6mb 76f 77f
4:50am 4.5ft 7s 6s 11 13 mph 1012.8mb 76f 77f
3:50am 4.5ft 7s 5s 13 16 mph 1012.9mb 76f 77f
2:50am 4ft 7s 5s 9
mph
1012.5mb 76f 77f
1:50am 4.5ft 7s 5s 7
mph
1013.1mb 76f 77f
12:50am 4.5ft 6s 5s 7 9 mph 1013.3mb 76f 78f
Thu 04/16 11:50pm 4ft 6s 5s 7 9 mph 1013.3mb 76f 78f
10:50pm 4ft 6s 5s 11 13 mph 1012.7mb 76f 78f
9:50pm 4.5ft 7s 5s 13 16 mph 1012.3mb 76f 78f
8:50pm 4.5ft 6s 5s 9 11 mph 1011.6mb 76f 78f
7:50pm 4.5ft 8s 5s 9 11 mph 1011.1mb 76f 78f
6:50pm 4.5ft 7s 5s 9 11 mph 1010.9mb 76f 78f
5:50pm 5ft 8s 5s 13
mph
1010.8mb 76f 78f
4:50pm 5ft 8s 5s 13 16 mph 1011mb 76f 79f
3:50pm 5ft 6s 5s 13 18 mph 1011.4mb 76f 79f
2:50pm 5ft 6s 5s 18 22 mph 1011.7mb 76f 78f
1:50pm 5ft 6s 5s 20 25 mph 1012.1mb 76f 78f
12:50pm 4.5ft 6s 5s 20 22 mph 1013mb 76f 78f
11:50am 4.5ft 5s 5s 18 22 mph 1013.9mb 76f 78f
10:50am 4ft 5s 4s 22 27 mph 1013.5mb 76f 78f
9:50am 3.5ft 7s 4s 20 22 mph 1013.3mb 76f 78f
8:50am 3.5ft 7s 4s 20 22 mph 1013.1mb 76f 77f
7:50am 3.5ft 7s 5s 16 18 mph 1013.4mb 76f 77f
6:50am 3.5ft 6s 5s 11 13 mph 1013mb 76f 77f
5:50am 3.5ft 7s 5s 16 18 mph 1012.6mb 76f 77f
4:50am 3.5ft 6s 5s 16 18 mph 1012.6mb 76f 77f
3:50am 3.5ft 6s 5s 9 11 mph 1012.7mb 76f 77f
2:50am 3.5ft 6s 5s 9 11 mph 1013.8mb 76f 77f
1:50am 3.5ft 6s 4s 13 16 mph 1013.2mb 76f 77f
12:50am 3ft 6s 4s 16 18 mph 1013.5mb 76f 76f
Wed 04/15 11:50pm 3.5ft 6s 5s 11 13 mph 1014.1mb 75f 76f